createdAt,value
2019-03-09T00:04:06.318Z,99424.85
2019-03-09T00:06:35.653Z,99412.77
2019-03-09T00:09:44.280Z,99424.61
2019-03-09T00:12:13.646Z,99427.98
2019-03-09T00:14:42.954Z,99421.08
2019-03-09T00:17:12.511Z,99412.38
2019-03-09T00:19:41.812Z,99411.00
2019-03-09T00:25:23.832Z,99408.80
2019-03-09T00:27:57.669Z,99412.72
2019-03-09T00:30:34.723Z,99332.11
2019-03-09T00:35:58.586Z,99411.41
2019-03-09T00:41:22.100Z,99422.19
2019-03-09T00:43:51.603Z,99402.15
2019-03-09T00:46:40.419Z,99394.38
2019-03-09T00:49:11.256Z,99397.06
2019-03-09T00:51:40.818Z,99394.15
2019-03-09T00:54:29.264Z,99388.86
2019-03-09T01:00:10.078Z,99381.09
2019-03-09T01:02:39.376Z,99375.60
2019-03-09T01:05:09.465Z,99371.80
2019-03-09T01:07:57.652Z,99366.58
2019-03-09T01:10:26.960Z,99362.25
2019-03-09T01:12:56.309Z,99376.09
2019-03-09T01:15:27.128Z,99351.66
2019-03-09T01:17:56.439Z,99350.34
2019-03-09T01:20:26.006Z,99350.75
2019-03-09T01:22:55.317Z,99347.21
2019-03-09T01:25:24.677Z,99343.15
2019-03-09T01:27:54.055Z,99332.55
2019-03-09T01:30:23.537Z,99320.16
2019-03-09T01:32:52.818Z,99330.31
2019-03-09T01:35:22.134Z,99325.94
2019-03-09T01:37:51.438Z,99317.66
2019-03-09T01:40:21.390Z,99314.48
2019-03-09T01:42:50.684Z,99301.34
2019-03-09T01:45:20.294Z,99288.35
2019-03-09T01:47:49.600Z,99165.31
2019-03-09T01:50:19.179Z,99284.77
2019-03-09T01:52:48.510Z,99272.52
2019-03-09T01:55:18.206Z,99273.45
2019-03-09T01:57:47.471Z,99276.84
2019-03-09T02:06:07.678Z,99255.02
2019-03-09T02:08:36.981Z,99125.61
2019-03-09T02:11:06.402Z,99254.94
2019-03-09T02:13:35.677Z,99184.63
2019-03-09T02:16:05.377Z,99232.02
2019-03-09T02:18:34.678Z,99228.10
2019-03-09T02:21:04.417Z,99223.66
2019-03-09T02:23:33.682Z,99214.14
2019-03-09T02:26:03.185Z,99210.21
2019-03-09T02:28:32.492Z,99202.91
2019-03-09T02:31:02.067Z,99195.06
2019-03-09T02:33:31.372Z,99189.91
2019-03-09T02:36:00.719Z,99181.78
2019-03-09T02:38:38.017Z,99169.17
2019-03-09T02:41:07.316Z,99163.09
2019-03-09T02:43:55.545Z,99157.94
2019-03-09T02:46:25.086Z,99145.20
2019-03-09T02:48:54.416Z,99144.05
2019-03-09T02:54:12.395Z,99129.28
2019-03-09T02:56:41.672Z,99130.58
2019-03-09T02:59:11.025Z,99123.31
2019-03-09T03:01:48.761Z,99061.42
2019-03-09T03:04:18.181Z,99116.22
2019-03-09T03:06:47.552Z,99105.61
2019-03-09T03:09:17.147Z,99105.61
2019-03-09T03:11:46.471Z,99092.55
2019-03-09T03:14:16.074Z,99086.95
2019-03-09T03:16:45.349Z,99095.84
2019-03-09T03:19:14.876Z,99081.85
2019-03-09T03:21:45.394Z,99076.25
2019-03-09T03:24:15.150Z,99065.72
2019-03-09T03:26:44.473Z,98931.73
2019-03-09T03:29:13.783Z,99042.98
2019-03-09T03:31:43.127Z,99048.20
2019-03-09T03:34:12.413Z,99035.88
2019-03-09T03:36:41.682Z,98924.33
2019-03-09T03:39:11.200Z,99024.13
2019-03-09T03:41:40.577Z,99020.37
2019-03-09T03:49:33.537Z,98993.89
2019-03-09T03:52:02.822Z,99006.88
2019-03-09T03:54:32.257Z,98988.75
2019-03-09T03:57:01.526Z,98918.50
2019-03-09T03:59:30.915Z,98973.97
2019-03-09T04:02:19.184Z,98967.44
2019-03-09T04:04:48.494Z,98950.16
2019-03-09T04:07:18.136Z,98948.95
2019-03-09T04:10:06.573Z,98944.09
2019-03-09T04:15:30.891Z,98935.11
2019-03-09T04:18:19.247Z,98923.34
2019-03-09T04:20:48.537Z,98913.30
2019-03-09T04:23:18.121Z,98838.64
2019-03-09T04:25:47.390Z,98904.06
2019-03-09T04:28:16.935Z,98903.98
2019-03-09T04:30:46.256Z,98897.45
2019-03-09T04:33:15.801Z,98873.16
2019-03-09T04:35:45.068Z,98883.36
2019-03-09T04:38:14.587Z,98882.50
2019-03-09T04:40:43.856Z,98870.56
2019-03-09T04:43:13.192Z,98870.20
2019-03-09T04:45:42.510Z,98860.52
2019-03-09T04:48:12.144Z,98858.63
2019-03-09T04:51:20.740Z,98853.41
2019-03-09T04:53:50.497Z,98837.81
2019-03-09T04:56:19.781Z,98835.11
2019-03-09T05:04:32.780Z,98755.66
2019-03-09T05:07:13.203Z,98810.86
2019-03-09T05:10:20.552Z,98811.59
2019-03-09T05:12:51.381Z,98799.46
2019-03-09T05:15:20.686Z,98795.91
2019-03-09T05:17:50.047Z,98785.63
2019-03-09T05:20:19.391Z,98784.72
2019-03-09T05:22:48.963Z,98778.73
2019-03-09T05:25:18.277Z,98764.63
2019-03-09T05:27:47.744Z,98750.17
2019-03-09T05:30:58.490Z,98755.77
2019-03-09T05:33:28.576Z,98743.64
2019-03-09T05:35:57.897Z,98731.97
2019-03-09T05:38:27.295Z,98726.28
2019-03-09T05:40:56.578Z,98721.23
2019-03-09T05:43:25.989Z,98726.47
2019-03-09T05:46:14.355Z,98721.23
2019-03-09T05:48:43.662Z,98709.11
2019-03-09T05:51:13.263Z,98701.27
2019-03-09T05:53:42.559Z,98700.61
2019-03-09T05:56:12.036Z,98688.94
2019-03-09T05:58:41.421Z,98686.05
2019-03-09T06:01:10.830Z,98689.30
2019-03-09T06:03:40.107Z,98682.67
2019-03-09T06:06:28.424Z,98674.92
2019-03-09T06:08:57.959Z,98674.08
2019-03-09T06:11:27.292Z,98667.27
2019-03-09T06:14:15.632Z,98656.06
2019-03-09T06:16:45.192Z,98653.84
2019-03-09T06:19:14.472Z,98644.70
2019-03-09T06:21:44.195Z,98639.66
2019-03-09T06:24:13.515Z,98636.28
2019-03-09T06:26:42.910Z,98632.27
2019-03-09T06:29:12.201Z,98564.97
2019-03-09T06:31:43.874Z,98612.02
2019-03-09T06:34:13.216Z,98490.24
2019-03-09T06:37:13.260Z,98598.77
2019-03-09T06:39:54.324Z,98588.32
2019-03-09T06:42:47.151Z,98585.34
2019-03-09T06:45:18.233Z,98575.84
2019-03-09T06:47:47.524Z,98570.13
2019-03-09T06:50:18.475Z,98554.94
2019-03-09T06:52:47.835Z,98554.18
2019-03-09T06:55:17.271Z,98548.59
2019-03-09T06:57:46.575Z,98426.59
2019-03-09T07:00:36.050Z,98533.09
2019-03-09T07:03:06.192Z,98464.46
2019-03-09T07:05:35.492Z,98520.03
2019-03-09T07:08:04.915Z,98505.59
2019-03-09T07:10:53.140Z,98494.30
2019-03-09T07:13:22.434Z,98498.20
2019-03-09T07:15:51.888Z,98492.23
2019-03-09T07:18:44.484Z,98428.10
2019-03-09T07:21:14.003Z,98489.34
2019-03-09T07:23:43.319Z,98474.13
2019-03-09T07:26:12.655Z,98462.59
2019-03-09T07:28:41.955Z,98455.30
2019-03-09T07:31:11.272Z,98454.36
2019-03-09T07:33:40.586Z,98447.37
2019-03-09T07:36:10.175Z,98444.19
2019-03-09T07:38:39.472Z,98382.63
2019-03-09T07:41:09.001Z,98438.06
2019-03-09T07:43:38.304Z,98424.91
2019-03-09T07:46:08.029Z,98425.84
2019-03-09T07:48:37.480Z,98421.38
2019-03-09T07:51:07.190Z,98414.09
2019-03-09T07:53:36.667Z,98413.91
2019-03-09T07:56:09.112Z,98410.19
2019-03-09T07:58:57.383Z,98400.77
2019-03-09T08:01:27.984Z,98397.04
2019-03-09T08:03:57.478Z,98393.48
2019-03-09T08:06:27.305Z,98376.08
2019-03-09T08:08:56.569Z,98375.13
2019-03-09T08:11:26.143Z,98370.10
2019-03-09T08:14:14.483Z,98366.83
2019-03-09T08:19:40.422Z,98352.97
2019-03-09T08:22:09.712Z,98357.43
2019-03-09T08:24:39.082Z,98345.13
2019-03-09T08:27:08.412Z,98335.62
2019-03-09T08:29:38.651Z,98336.01
2019-03-09T08:32:07.959Z,98319.69
2019-03-09T08:34:37.482Z,98316.08
2019-03-09T08:37:06.862Z,98244.58
2019-03-09T08:39:36.310Z,98304.91
2019-03-09T08:42:05.606Z,98245.88
2019-03-09T08:44:34.903Z,98299.25
2019-03-09T08:47:04.209Z,98291.33
2019-03-09T08:49:33.033Z,98291.52
2019-03-09T08:52:21.418Z,98270.66
2019-03-09T08:54:50.804Z,98274.17
2019-03-09T08:57:20.126Z,98246.24
2019-03-09T08:59:49.417Z,98262.63
2019-03-09T09:04:56.291Z,98257.23
2019-03-09T09:07:25.572Z,98240.84
2019-03-09T09:09:55.053Z,98242.80
2019-03-09T09:12:24.331Z,98235.33
2019-03-09T09:14:53.913Z,98226.13
2019-03-09T09:17:23.213Z,98223.14
2019-03-09T09:19:52.850Z,98216.06
2019-03-09T09:22:22.124Z,98212.88
2019-03-09T09:24:51.480Z,98206.94
2019-03-09T09:27:20.764Z,98200.75
2019-03-09T09:29:50.197Z,98198.42
2019-03-09T09:32:38.458Z,98135.28
2019-03-09T09:35:08.913Z,98179.74
2019-03-09T09:40:26.609Z,98164.31
2019-03-09T09:46:10.259Z,98155.92
2019-03-09T09:48:58.601Z,98159.13
2019-03-09T09:51:27.970Z,98141.00
2019-03-09T09:54:16.168Z,98135.13
2019-03-09T09:56:45.485Z,98124.73
2019-03-09T09:59:15.076Z,98120.45
2019-03-09T10:02:03.432Z,98121.39
2019-03-09T10:04:32.705Z,98108.27
2019-03-09T10:07:02.040Z,98110.02
2019-03-09T10:09:31.343Z,98094.95
2019-03-09T10:12:00.905Z,98097.58
2019-03-09T10:14:30.176Z,98084.34
2019-03-09T10:16:59.446Z,98079.69
2019-03-09T10:19:28.808Z,98069.45
2019-03-09T10:21:58.204Z,98061.05
2019-03-09T10:24:27.481Z,98054.34
2019-03-09T10:26:57.139Z,98055.48
2019-03-09T10:29:26.411Z,98059.75
2019-03-09T10:31:55.883Z,98048.74
2019-03-09T10:34:25.219Z,98046.75
2019-03-09T10:37:13.469Z,98051.31
2019-03-09T10:39:42.963Z,98051.12
2019-03-09T10:42:12.230Z,98039.19
2019-03-09T10:44:41.816Z,98041.75
2019-03-09T10:47:11.102Z,98045.73
2019-03-09T10:49:40.661Z,98037.05
2019-03-09T10:52:10.001Z,98018.47
2019-03-09T10:54:39.301Z,98033.05
2019-03-09T10:57:08.580Z,98038.54
2019-03-09T10:59:38.004Z,98032.48
2019-03-09T11:02:07.396Z,98022.19
2019-03-09T11:04:36.890Z,98034.75
2019-03-09T11:09:41.169Z,98050.48
2019-03-09T11:12:10.564Z,98044.09
2019-03-09T11:14:39.847Z,98054.11
2019-03-09T11:17:09.353Z,98054.62
2019-03-09T11:19:38.634Z,98051.23
2019-03-09T11:22:07.985Z,98057.55
2019-03-09T11:24:37.259Z,98054.50
2019-03-09T11:27:06.576Z,98043.88
2019-03-09T11:29:35.894Z,98036.25
2019-03-09T11:32:05.204Z,98054.06
2019-03-09T11:34:34.485Z,98055.37
2019-03-09T11:37:22.819Z,98067.84
2019-03-09T11:43:06.277Z,98064.05
2019-03-09T11:45:35.546Z,98072.06
2019-03-09T11:53:15.691Z,97974.19
2019-03-09T11:55:44.993Z,98076.98
2019-03-09T11:58:14.316Z,98076.61
2019-03-09T12:03:33.509Z,98080.46
2019-03-09T12:06:03.046Z,98065.07
2019-03-09T12:08:32.368Z,98078.03
2019-03-09T12:11:01.864Z,98075.06
2019-03-09T12:13:31.110Z,98078.06
2019-03-09T12:16:00.504Z,98076.19
2019-03-09T12:18:29.765Z,98081.42
2019-03-09T12:20:59.280Z,98086.75
2019-03-09T12:23:28.581Z,97965.30
2019-03-09T12:25:58.053Z,98086.08
2019-03-09T12:28:46.317Z,98084.06
2019-03-09T12:31:15.689Z,98083.81
2019-03-09T12:33:45.436Z,98069.09
2019-03-09T12:36:14.741Z,97967.73
2019-03-09T12:38:44.071Z,98014.31
2019-03-09T12:41:13.446Z,98077.94
2019-03-09T12:43:42.736Z,98076.42
2019-03-09T12:46:12.008Z,98085.27
2019-03-09T12:48:41.426Z,98091.38
2019-03-09T12:51:10.796Z,98086.66
2019-03-09T12:53:40.646Z,98080.26
2019-03-09T12:56:09.933Z,98093.85
2019-03-09T12:58:39.334Z,98031.84
2019-03-09T13:01:27.568Z,98093.66
2019-03-09T13:03:56.865Z,98095.59
2019-03-09T13:06:26.308Z,98099.75
2019-03-09T13:08:55.601Z,98109.16
2019-03-09T13:11:25.290Z,98116.55
2019-03-09T13:14:13.690Z,98050.70
2019-03-09T13:16:42.981Z,98106.48
2019-03-09T13:19:12.265Z,98106.61
2019-03-09T13:21:41.547Z,98030.25
2019-03-09T13:24:10.905Z,98118.30
2019-03-09T13:26:40.170Z,98066.61
2019-03-09T13:29:09.495Z,98118.30
2019-03-09T13:31:38.762Z,98118.30
2019-03-09T13:34:27.144Z,98111.29
2019-03-09T13:36:56.814Z,98032.89
2019-03-09T13:39:26.131Z,98132.34
2019-03-09T13:41:55.541Z,98115.44
2019-03-09T13:44:24.832Z,98104.34
2019-03-09T13:46:54.421Z,98114.35
2019-03-09T13:49:23.726Z,98065.00
2019-03-09T13:51:53.307Z,98126.59
2019-03-09T13:54:22.597Z,98132.16
2019-03-09T13:56:52.114Z,98132.05
2019-03-09T13:59:21.430Z,98143.36
2019-03-09T14:01:50.985Z,98130.38
2019-03-09T14:04:20.298Z,98142.52
2019-03-09T14:06:49.613Z,98119.18
2019-03-09T14:09:18.988Z,98092.16
2019-03-09T14:11:48.431Z,98144.64
2019-03-09T14:14:17.754Z,98081.13
2019-03-09T14:16:47.091Z,98122.97
2019-03-09T14:19:16.429Z,98080.43
2019-03-09T14:21:45.698Z,98144.36
2019-03-09T14:24:15.049Z,98133.09
2019-03-09T14:26:44.414Z,98123.44
2019-03-09T14:29:14.031Z,98126.77
2019-03-09T14:31:43.313Z,98134.09
2019-03-09T14:34:12.981Z,98133.20
2019-03-09T14:36:42.273Z,98151.02
2019-03-09T14:42:00.360Z,98149.70
2019-03-09T14:44:29.662Z,98139.25
2019-03-09T14:46:59.263Z,98174.95
2019-03-09T14:49:28.615Z,98160.56
2019-03-09T14:51:58.109Z,98147.31
2019-03-09T14:54:46.599Z,98151.23
2019-03-09T14:57:15.863Z,98151.45
2019-03-09T14:59:45.246Z,98148.27
2019-03-09T15:02:14.529Z,98152.19
2019-03-09T15:04:44.164Z,98156.47
2019-03-09T15:07:13.509Z,98158.87
2019-03-09T15:09:43.284Z,98179.09
2019-03-09T15:12:12.587Z,98154.59
2019-03-09T15:14:42.549Z,98157.34
2019-03-09T15:17:11.813Z,98155.11
2019-03-09T15:22:16.506Z,98081.34
2019-03-09T15:24:45.805Z,98104.88
2019-03-09T15:27:15.344Z,98180.10
2019-03-09T15:29:44.627Z,98170.94
2019-03-09T15:32:14.182Z,98182.36
2019-03-09T15:35:02.668Z,98181.55
2019-03-09T15:40:25.985Z,98181.55
2019-03-09T15:42:55.281Z,98174.19
2019-03-09T15:45:24.858Z,98183.45
2019-03-09T15:47:54.153Z,98184.16
2019-03-09T15:50:42.524Z,98197.24
2019-03-09T15:53:12.098Z,98217.36
2019-03-09T15:55:41.590Z,98184.38
2019-03-09T15:58:11.503Z,98207.11
2019-03-09T16:00:40.940Z,98196.75
2019-03-09T16:03:10.429Z,98207.02
2019-03-09T16:05:39.677Z,98146.80
2019-03-09T16:08:09.349Z,98230.16
2019-03-09T16:10:38.630Z,98143.19
2019-03-09T16:15:43.601Z,98228.03
2019-03-09T16:20:47.592Z,98236.55
2019-03-09T16:23:17.205Z,98231.42
2019-03-09T16:26:05.775Z,98106.18
2019-03-09T16:28:35.088Z,98229.27
2019-03-09T16:31:04.657Z,98231.88
2019-03-09T16:33:33.944Z,98177.09
2019-03-09T16:36:03.446Z,98237.67
2019-03-09T16:38:32.800Z,98242.55
2019-03-09T16:41:02.144Z,98242.55
2019-03-09T16:43:31.387Z,98249.44
2019-03-09T16:46:00.683Z,98253.47
2019-03-09T16:48:30.387Z,98250.39
2019-03-09T16:50:59.756Z,98242.55
2019-03-09T16:53:29.067Z,98257.03
2019-03-09T16:55:58.351Z,98251.27
2019-03-09T16:58:27.967Z,98255.83
2019-03-09T17:00:57.253Z,98280.28
2019-03-09T17:03:26.748Z,98259.47
2019-03-09T17:05:56.098Z,98270.63
2019-03-09T17:08:25.519Z,98272.64
2019-03-09T17:10:54.809Z,98274.16
2019-03-09T17:13:24.333Z,98280.80
2019-03-09T17:15:53.641Z,98275.67
2019-03-09T17:18:23.384Z,98286.73
2019-03-09T17:20:52.704Z,98276.94
2019-03-09T17:23:22.278Z,98287.19
2019-03-09T17:25:51.580Z,98285.42
2019-03-09T17:28:59.762Z,98291.26
2019-03-09T17:31:29.053Z,98295.56
2019-03-09T17:34:17.363Z,98303.87
2019-03-09T17:36:46.936Z,98308.35
2019-03-09T17:39:16.243Z,98290.85
2019-03-09T17:41:45.722Z,98307.55
2019-03-09T17:44:15.017Z,98263.19
2019-03-09T17:46:44.327Z,98307.25
2019-03-09T17:49:13.673Z,98306.30
2019-03-09T17:51:43.198Z,98313.39
2019-03-09T17:54:31.544Z,98311.83
2019-03-09T17:57:00.988Z,98320.62
2019-03-09T17:59:30.296Z,98297.45
2019-03-09T18:01:59.791Z,98292.58
2019-03-09T18:04:29.128Z,98316.59
2019-03-09T18:06:58.433Z,98309.22
2019-03-09T18:09:27.823Z,98310.88
2019-03-09T18:11:57.109Z,98304.34
2019-03-09T18:14:26.618Z,98311.27
2019-03-09T18:16:55.944Z,98247.47
2019-03-09T18:19:25.460Z,98323.39
2019-03-09T18:21:54.793Z,98294.75
2019-03-09T18:24:24.315Z,98315.45
2019-03-09T18:26:53.653Z,98253.85
2019-03-09T18:29:23.200Z,98315.80
2019-03-09T18:31:52.550Z,98304.73
2019-03-09T18:34:22.496Z,98325.34
2019-03-09T18:36:51.793Z,98317.66
2019-03-09T18:39:21.337Z,98305.44
2019-03-09T18:41:50.817Z,98294.99
2019-03-09T18:44:20.135Z,98314.98
2019-03-09T18:46:49.425Z,98307.14
2019-03-09T18:49:18.956Z,98314.04
2019-03-09T18:51:48.306Z,98322.63
2019-03-09T18:54:17.622Z,98322.08
2019-03-09T18:56:47.061Z,98333.48
2019-03-09T18:59:16.483Z,98330.13
2019-03-09T19:01:45.881Z,98334.61
2019-03-09T19:04:15.244Z,98327.72
2019-03-09T19:06:44.567Z,98329.38
2019-03-09T19:09:13.902Z,98327.36
2019-03-09T19:11:43.217Z,98323.44
2019-03-09T19:14:31.592Z,98323.44
2019-03-09T19:17:00.923Z,98299.77
2019-03-09T19:19:30.224Z,98319.41
2019-03-09T19:21:59.569Z,98311.93
2019-03-09T19:24:28.896Z,98320.23
2019-03-09T19:29:32.947Z,98244.80
2019-03-09T19:32:02.302Z,98318.82
2019-03-09T19:34:31.779Z,98312.67
2019-03-09T19:37:01.061Z,98335.00
2019-03-09T19:39:30.363Z,98325.25
2019-03-09T19:41:59.671Z,98207.88
2019-03-09T19:44:29.100Z,98319.47
2019-03-09T19:46:58.402Z,98333.28
2019-03-09T19:49:46.718Z,98349.68
2019-03-09T19:52:16.167Z,98345.97
2019-03-09T19:54:45.558Z,98346.55
2019-03-09T19:57:15.016Z,98345.91
2019-03-09T19:59:44.360Z,98350.19
2019-03-09T20:02:13.644Z,98340.42
2019-03-09T20:04:43.197Z,98353.09
2019-03-09T20:07:12.560Z,98349.02
2019-03-09T20:09:41.967Z,98361.47
2019-03-09T20:12:11.328Z,98363.89
2019-03-09T20:14:40.908Z,98367.19
2019-03-09T20:17:10.217Z,98367.77
2019-03-09T20:19:39.884Z,98360.33
2019-03-09T20:22:09.170Z,98360.23
2019-03-09T20:24:38.713Z,98368.72
2019-03-09T20:27:07.991Z,98365.45
2019-03-09T20:29:37.294Z,98369.47
2019-03-09T20:32:25.933Z,98357.72
2019-03-09T20:34:55.213Z,98367.58
2019-03-09T20:37:24.968Z,98369.64
2019-03-09T20:39:54.245Z,98374.11
2019-03-09T20:42:42.602Z,98367.48
2019-03-09T20:45:14.744Z,98373.91
2019-03-09T20:47:44.353Z,98376.92
2019-03-09T20:50:14.442Z,98373.39
2019-03-09T20:52:44.180Z,98375.42
2019-03-09T20:55:13.509Z,98370.59
2019-03-09T20:57:43.268Z,98369.67
2019-03-09T21:00:14.718Z,98378.23
2019-03-09T21:02:44.454Z,98374.11
2019-03-09T21:05:13.798Z,98373.75
2019-03-09T21:07:43.301Z,98375.91
2019-03-09T21:10:13.783Z,98305.05
2019-03-09T21:13:03.107Z,98369.64
2019-03-09T21:15:32.413Z,98371.70
2019-03-09T21:18:01.798Z,98373.91
2019-03-09T21:20:31.113Z,98383.45
2019-03-09T21:23:00.632Z,98382.70
2019-03-09T21:25:29.924Z,98388.88
2019-03-09T21:27:59.347Z,98391.48
2019-03-09T21:30:28.637Z,98391.09
2019-03-09T21:32:58.078Z,98390.63
2019-03-09T21:35:27.379Z,98392.39
2019-03-09T21:37:56.838Z,98392.78
2019-03-09T21:40:26.131Z,98402.13
2019-03-09T21:42:55.613Z,98398.95
2019-03-09T21:45:24.920Z,98401.10
2019-03-09T21:47:54.284Z,98400.48
2019-03-09T21:50:42.588Z,98396.92
2019-03-09T21:53:11.861Z,98362.46
2019-03-09T21:55:41.289Z,98391.50
2019-03-09T21:58:10.575Z,98394.12
2019-03-09T22:00:40.004Z,98385.05
2019-03-09T22:03:21.089Z,98391.88
2019-03-09T22:05:50.414Z,98390.17
2019-03-09T22:08:19.782Z,98394.58
2019-03-09T22:10:49.064Z,98391.02
2019-03-09T22:13:18.664Z,98390.17
2019-03-09T22:15:48.277Z,98382.92
2019-03-09T22:18:17.582Z,98392.98
2019-03-09T22:20:47.137Z,98394.29
2019-03-09T22:23:16.422Z,98396.15
2019-03-09T22:25:45.831Z,98387.37
2019-03-09T22:28:15.160Z,98384.66
2019-03-09T22:30:44.465Z,98386.45
2019-03-09T22:33:33.039Z,98346.97
2019-03-09T22:36:02.362Z,98383.74
2019-03-09T22:38:31.867Z,98390.18
2019-03-09T22:41:01.146Z,98387.92
2019-03-09T22:43:30.542Z,98391.84
2019-03-09T22:45:59.848Z,98388.88
2019-03-09T22:48:29.180Z,98383.65
2019-03-09T22:50:58.564Z,98386.62
2019-03-09T22:53:27.930Z,98380.09
2019-03-09T22:58:45.470Z,98391.65
2019-03-09T23:01:15.479Z,98387.37
2019-03-09T23:04:04.041Z,98390.34
2019-03-09T23:06:33.323Z,98387.63
2019-03-09T23:09:03.388Z,98386.42
2019-03-09T23:11:32.678Z,98390.34
2019-03-09T23:14:02.263Z,98385.12
2019-03-09T23:16:50.477Z,98390.34
2019-03-09T23:19:19.788Z,98382.34
2019-03-09T23:21:49.177Z,98390.53
2019-03-09T23:24:18.747Z,98388.88
2019-03-09T23:26:48.281Z,98394.36
2019-03-09T23:29:37.076Z,98396.41
2019-03-09T23:32:06.360Z,98397.23
2019-03-09T23:34:54.696Z,98403.05
2019-03-09T23:37:24.113Z,98400.80
2019-03-09T23:40:32.741Z,98408.83
2019-03-09T23:43:02.195Z,98408.83
2019-03-09T23:45:31.478Z,98410.69
2019-03-09T23:48:01.282Z,98410.52
2019-03-09T23:53:18.801Z,98417.80
2019-03-09T23:55:48.285Z,98420.61
2019-03-09T23:58:36.469Z,98353.34
